Terminal Aerodrome Forecast
Issued by NWS

Home | Current Version | Previous Version | Text Only | Print | Product List | Glossary On
Versions: 1 2 3 4 5 6 7 8 9 10 11 12 13 14
000
FTUS44 KTSA 202300
TAFBVO
TAF
KBVO 202338Z 2100/2124 00000KT P6SM SKC
     FM210600 00000KT 2SM BR SKC
     FM210900 00000KT 1/4SM FG BKN002
     FM211400 11003KT 3SM BR SKC
     FM211800 13005KT P6SM SKC=

USA.gov is the U.S. government's official web portal to all federal, state and local government web resources and services.